createdAt,value
2019-01-31T00:00:42.772Z,145.63
2019-01-31T00:04:05.219Z,140.93
2019-01-31T00:07:07.146Z,117.93
2019-01-31T00:10:01.452Z,108.30
2019-01-31T00:13:29.545Z,115.20
2019-01-31T00:16:46.489Z,114.63
2019-01-31T00:19:33.479Z,121.73
2019-01-31T00:22:58.919Z,116.43
2019-01-31T00:26:07.014Z,122.13
2019-01-31T00:29:13.288Z,113.23
2019-01-31T00:32:26.759Z,117.40
2019-01-31T00:35:27.093Z,122.30
2019-01-31T00:38:37.866Z,121.93
2019-01-31T00:41:36.601Z,126.07
2019-01-31T00:44:49.006Z,134.90
2019-01-31T00:47:43.632Z,117.97
2019-01-31T00:50:44.217Z,113.20
2019-01-31T00:53:55.092Z,117.90
2019-01-31T00:56:39.936Z,111.27
2019-01-31T00:59:59.613Z,109.83
2019-01-31T01:02:59.369Z,113.07
2019-01-31T01:06:32.390Z,116.97
2019-01-31T01:09:38.302Z,107.27
2019-01-31T01:12:49.143Z,115.23
2019-01-31T01:15:41.473Z,104.37
2019-01-31T01:19:02.323Z,98.40
2019-01-31T01:22:09.860Z,102.77
2019-01-31T01:25:15.278Z,128.37
2019-01-31T01:27:59.826Z,115.33
2019-01-31T01:31:13.209Z,109.53
2019-01-31T01:34:22.845Z,116.77
2019-01-31T01:37:16.142Z,104.13
2019-01-31T01:40:17.428Z,104.07
2019-01-31T01:43:22.711Z,104.07
2019-01-31T01:46:34.026Z,98.93
2019-01-31T01:49:43.517Z,100.87
2019-01-31T01:52:37.232Z,94.87
2019-01-31T01:55:40.991Z,103.97
2019-01-31T01:58:44.257Z,117.90
2019-01-31T02:02:02.873Z,111.43
2019-01-31T02:05:02.658Z,117.13
2019-01-31T02:08:12.249Z,96.40
2019-01-31T02:11:32.214Z,103.53
2019-01-31T02:14:30.370Z,103.93
2019-01-31T02:17:17.716Z,96.60
2019-01-31T02:20:48.887Z,94.03
2019-01-31T02:23:34.796Z,100.60
2019-01-31T02:26:56.603Z,93.07
2019-01-31T02:29:57.934Z,104.27
2019-01-31T02:33:29.427Z,96.93
2019-01-31T02:36:51.023Z,98.40
2019-01-31T02:39:49.695Z,96.37
2019-01-31T02:43:01.673Z,99.00
2019-01-31T02:46:28.968Z,97.53
2019-01-31T02:49:26.156Z,93.83
2019-01-31T02:52:05.757Z,104.87
2019-01-31T02:55:22.036Z,95.97
2019-01-31T02:58:12.046Z,94.00
2019-01-31T03:01:12.592Z,98.97
2019-01-31T03:04:07.779Z,110.20
2019-01-31T03:07:27.488Z,105.63
2019-01-31T03:10:28.774Z,113.90
2019-01-31T03:13:32.636Z,117.03
2019-01-31T03:17:00.992Z,121.07
2019-01-31T03:20:11.312Z,100.87
2019-01-31T03:23:27.080Z,91.97
2019-01-31T03:26:06.067Z,104.50
2019-01-31T03:29:30.767Z,98.30
2019-01-31T03:32:28.983Z,100.70
2019-01-31T03:35:31.420Z,103.03
2019-01-31T03:38:31.319Z,103.70
2019-01-31T03:41:41.566Z,96.63
2019-01-31T03:44:47.703Z,96.67
2019-01-31T03:47:45.477Z,105.17
2019-01-31T03:50:25.173Z,107.77
2019-01-31T03:53:43.339Z,95.83
2019-01-31T03:56:48.838Z,101.50
2019-01-31T03:59:51.549Z,110.73
2019-01-31T04:03:07.797Z,102.97
2019-01-31T04:06:01.511Z,118.73
2019-01-31T04:08:33.744Z,111.10
2019-01-31T04:11:05.736Z,108.43
2019-01-31T04:13:37.838Z,102.80
2019-01-31T04:16:09.843Z,115.57
2019-01-31T04:18:41.909Z,114.87
2019-01-31T04:21:14.049Z,141.20
2019-01-31T04:23:49.074Z,154.97
2019-01-31T04:26:21.169Z,140.70
2019-01-31T04:28:53.244Z,139.90
2019-01-31T04:31:26.099Z,126.67
2019-01-31T04:33:58.219Z,124.90
2019-01-31T04:36:30.252Z,122.63
2019-01-31T04:39:04.516Z,126.47
2019-01-31T04:41:38.490Z,112.70
2019-01-31T04:44:10.556Z,121.97
2019-01-31T04:46:42.727Z,150.73
2019-01-31T04:49:15.953Z,173.03
2019-01-31T04:51:48.011Z,167.00
2019-01-31T04:54:20.341Z,172.40
2019-01-31T04:56:52.486Z,189.43
2019-01-31T04:59:24.510Z,180.83
2019-01-31T05:01:56.648Z,186.70
2019-01-31T05:04:28.754Z,164.13
2019-01-31T05:07:05.231Z,161.00
2019-01-31T05:09:37.338Z,160.03
2019-01-31T05:12:09.651Z,213.30
2019-01-31T05:14:44.498Z,192.67
2019-01-31T05:17:23.178Z,151.20
2019-01-31T05:19:56.750Z,158.10
2019-01-31T05:22:28.955Z,175.13
2019-01-31T05:25:01.826Z,167.13
2019-01-31T05:27:34.082Z,166.43
2019-01-31T05:30:09.407Z,161.97
2019-01-31T05:32:41.644Z,161.50
2019-01-31T05:35:13.722Z,172.93
2019-01-31T05:37:45.797Z,198.23
2019-01-31T05:40:20.798Z,268.70
2019-01-31T05:42:53.457Z,253.13
2019-01-31T05:45:25.918Z,274.77
2019-01-31T05:47:58.616Z,273.53
2019-01-31T05:50:32.359Z,241.73
2019-01-31T05:53:07.207Z,260.33
2019-01-31T05:55:39.258Z,283.53
2019-01-31T05:58:11.711Z,321.30
2019-01-31T06:00:43.858Z,283.13
2019-01-31T06:03:16.073Z,288.97
2019-01-31T06:05:50.068Z,240.80
2019-01-31T06:08:22.162Z,276.20
2019-01-31T06:11:06.845Z,228.03
2019-01-31T06:13:29.962Z,173.80
2019-01-31T06:16:02.237Z,158.90
2019-01-31T06:18:34.350Z,181.50
2019-01-31T06:21:06.566Z,173.67
2019-01-31T06:23:38.671Z,179.73
2019-01-31T06:26:10.729Z,185.73
2019-01-31T06:28:45.407Z,192.73
2019-01-31T06:31:17.519Z,204.60
2019-01-31T06:33:49.792Z,182.83
2019-01-31T06:36:21.994Z,164.00
2019-01-31T06:38:54.202Z,176.73
2019-01-31T06:41:26.396Z,203.73
2019-01-31T06:43:58.413Z,230.30
2019-01-31T06:46:30.503Z,259.93
2019-01-31T06:49:02.577Z,278.63
2019-01-31T06:51:34.702Z,253.07
2019-01-31T06:54:07.767Z,255.33
2019-01-31T06:56:39.975Z,283.20
2019-01-31T06:59:14.636Z,255.43
2019-01-31T07:01:47.048Z,263.00
2019-01-31T07:04:19.343Z,257.73
2019-01-31T07:06:51.557Z,231.43
2019-01-31T07:09:23.669Z,227.60
2019-01-31T07:11:56.163Z,241.87
2019-01-31T07:14:28.302Z,256.90
2019-01-31T07:17:00.418Z,264.80
2019-01-31T07:19:32.678Z,242.60
2019-01-31T07:22:05.194Z,217.50
2019-01-31T07:24:37.494Z,181.13
2019-01-31T07:27:12.886Z,174.77
2019-01-31T07:29:45.172Z,152.23
2019-01-31T07:32:17.462Z,159.13
2019-01-31T07:34:49.667Z,184.10
2019-01-31T07:37:21.799Z,174.23
2019-01-31T07:39:53.838Z,170.50
2019-01-31T07:42:25.939Z,173.33
2019-01-31T07:44:58.040Z,166.40
2019-01-31T07:47:30.220Z,177.03
2019-01-31T07:50:02.263Z,169.57
2019-01-31T07:52:34.440Z,190.40
2019-01-31T07:55:07.295Z,197.83
2019-01-31T07:57:39.456Z,244.97
2019-01-31T08:00:13.482Z,261.17
2019-01-31T08:02:45.531Z,206.27
2019-01-31T08:05:19.225Z,148.97
2019-01-31T08:07:53.425Z,166.20
2019-01-31T08:10:28.232Z,152.23
2019-01-31T08:13:00.254Z,147.20
2019-01-31T08:15:35.400Z,152.67
2019-01-31T08:18:07.539Z,157.77
2019-01-31T08:20:39.668Z,156.03
2019-01-31T08:23:11.748Z,174.53
2019-01-31T08:25:43.828Z,170.07
2019-01-31T08:28:15.925Z,145.10
2019-01-31T08:30:48.994Z,159.67
2019-01-31T08:33:21.083Z,156.23
2019-01-31T08:35:53.231Z,180.47
2019-01-31T08:38:25.408Z,184.83
2019-01-31T08:40:57.481Z,179.93
2019-01-31T08:43:30.701Z,256.83
2019-01-31T08:46:02.814Z,222.37
2019-01-31T08:48:34.887Z,161.90
2019-01-31T08:51:06.949Z,185.67
2019-01-31T08:53:39.026Z,171.53
2019-01-31T08:56:11.166Z,171.43
2019-01-31T08:58:43.341Z,168.07
2019-01-31T09:01:15.432Z,183.77
2019-01-31T09:03:47.412Z,162.47
2019-01-31T09:06:19.550Z,174.53
2019-01-31T09:08:51.696Z,159.17
2019-01-31T09:11:23.811Z,170.17
2019-01-31T09:13:55.914Z,158.53
2019-01-31T09:16:28.045Z,155.37
2019-01-31T09:19:00.177Z,155.70
2019-01-31T09:22:28.600Z,148.17
2019-01-31T09:25:37.406Z,153.67
2019-01-31T09:28:44.228Z,167.23
2019-01-31T09:32:09.317Z,151.47
2019-01-31T09:34:56.429Z,148.20
2019-01-31T09:38:05.269Z,141.53
2019-01-31T09:41:14.929Z,143.15
2019-01-31T09:44:15.844Z,135.23
2019-01-31T09:47:36.318Z,135.90
2019-01-31T09:50:52.370Z,135.28
2019-01-31T09:54:11.385Z,139.45
2019-01-31T09:57:11.345Z,134.82
2019-01-31T10:00:27.719Z,134.18
2019-01-31T10:03:41.977Z,124.50
2019-01-31T10:07:07.192Z,134.82
2019-01-31T10:09:58.046Z,117.82
2019-01-31T10:12:51.671Z,121.33
2019-01-31T10:15:37.856Z,109.80
2019-01-31T10:18:30.985Z,132.03
2019-01-31T10:21:24.825Z,110.83
2019-01-31T10:24:35.750Z,128.12
2019-01-31T10:27:34.802Z,122.28
2019-01-31T10:30:46.437Z,122.60
2019-01-31T10:34:08.875Z,148.80
2019-01-31T10:36:50.682Z,138.30
2019-01-31T10:39:57.313Z,128.93
2019-01-31T10:43:31.700Z,126.07
2019-01-31T10:46:33.233Z,123.10
2019-01-31T10:49:58.372Z,116.65
2019-01-31T10:53:12.414Z,126.12
2019-01-31T10:56:34.198Z,121.33
2019-01-31T10:59:43.273Z,122.55
2019-01-31T11:03:02.415Z,122.65
2019-01-31T11:06:00.438Z,128.18
2019-01-31T11:08:47.653Z,129.35
2019-01-31T11:12:00.030Z,130.70
2019-01-31T11:15:08.951Z,140.65
2019-01-31T11:18:19.297Z,142.87
2019-01-31T11:21:23.988Z,123.90
2019-01-31T11:24:18.454Z,119.97
2019-01-31T11:27:11.687Z,113.12
2019-01-31T11:30:39.070Z,118.97
2019-01-31T11:33:31.913Z,116.10
2019-01-31T11:36:45.863Z,110.83
2019-01-31T11:39:35.765Z,111.52
2019-01-31T11:42:33.540Z,126.02
2019-01-31T11:45:50.246Z,116.57
2019-01-31T11:49:03.913Z,113.08
2019-01-31T11:52:30.532Z,108.47
2019-01-31T11:55:24.396Z,100.60
2019-01-31T11:58:32.635Z,109.40
2019-01-31T12:01:05.989Z,102.92
2019-01-31T12:03:38.934Z,109.25
2019-01-31T12:06:14.522Z,92.50
2019-01-31T12:08:46.522Z,93.00
2019-01-31T12:11:18.617Z,100.30
2019-01-31T12:13:50.707Z,101.87
2019-01-31T12:16:22.803Z,101.85
2019-01-31T12:18:55.094Z,86.35
2019-01-31T12:21:27.335Z,83.42
2019-01-31T12:23:59.415Z,80.87
2019-01-31T12:26:31.437Z,78.17
2019-01-31T12:29:03.447Z,76.02
2019-01-31T12:31:35.539Z,66.67
2019-01-31T12:34:07.599Z,66.00
2019-01-31T12:36:39.712Z,71.95
2019-01-31T12:39:12.088Z,88.42
2019-01-31T12:41:44.330Z,76.12
2019-01-31T12:44:16.368Z,75.87
2019-01-31T12:46:48.491Z,73.45
2019-01-31T12:49:20.548Z,71.40
2019-01-31T12:51:52.577Z,64.70
2019-01-31T12:54:24.626Z,61.13
2019-01-31T12:56:56.819Z,69.35
2019-01-31T12:59:28.816Z,85.80
2019-01-31T13:02:00.861Z,100.47
2019-01-31T13:04:32.976Z,77.17
2019-01-31T13:07:05.241Z,73.40
2019-01-31T13:09:37.348Z,71.35
2019-01-31T13:12:09.434Z,87.80
2019-01-31T13:14:41.528Z,99.13
2019-01-31T13:17:13.632Z,87.37
2019-01-31T13:19:45.635Z,88.82
2019-01-31T13:22:17.885Z,70.57
2019-01-31T13:24:49.943Z,84.05
2019-01-31T13:27:22.053Z,76.90
2019-01-31T13:29:54.062Z,58.55
2019-01-31T13:32:26.728Z,81.05
2019-01-31T13:34:59.699Z,95.10
2019-01-31T13:37:31.717Z,99.50
2019-01-31T13:40:04.175Z,122.58
2019-01-31T13:42:36.254Z,120.28
2019-01-31T13:45:10.046Z,164.03
2019-01-31T13:47:42.457Z,148.65
2019-01-31T13:50:15.590Z,152.35
2019-01-31T13:52:47.693Z,170.92
2019-01-31T13:55:25.085Z,141.20
2019-01-31T13:57:57.250Z,146.70
2019-01-31T14:00:29.335Z,148.03
2019-01-31T14:03:01.434Z,148.60
2019-01-31T14:05:33.752Z,161.85
2019-01-31T14:08:06.911Z,136.00
2019-01-31T14:10:39.300Z,157.03
2019-01-31T14:13:11.690Z,136.30
2019-01-31T14:15:44.031Z,130.97
2019-01-31T14:18:16.238Z,145.13
2019-01-31T14:20:48.961Z,169.57
2019-01-31T14:23:21.315Z,168.02
2019-01-31T14:25:53.325Z,171.32
2019-01-31T14:28:26.467Z,149.03
2019-01-31T14:30:58.559Z,157.60
2019-01-31T14:33:31.331Z,155.60
2019-01-31T14:36:03.958Z,160.80
2019-01-31T14:38:36.215Z,137.70
2019-01-31T14:41:08.560Z,135.43
2019-01-31T14:43:40.678Z,151.40
2019-01-31T14:46:13.782Z,174.57
2019-01-31T14:48:45.901Z,156.53
2019-01-31T14:51:18.349Z,160.30
2019-01-31T14:53:50.542Z,164.37
2019-01-31T14:56:22.657Z,186.70
2019-01-31T14:58:54.802Z,188.83
2019-01-31T15:01:26.923Z,165.23
2019-01-31T15:03:59.161Z,155.63
2019-01-31T15:06:31.315Z,150.23
2019-01-31T15:09:03.590Z,154.07
2019-01-31T15:11:37.373Z,180.17
2019-01-31T15:14:09.489Z,179.57
2019-01-31T15:16:41.564Z,194.97
2019-01-31T15:19:13.603Z,195.00
2019-01-31T15:21:45.909Z,206.73
2019-01-31T15:24:17.910Z,239.47
2019-01-31T15:26:50.080Z,226.97
2019-01-31T15:29:22.209Z,218.10
2019-01-31T15:31:54.301Z,274.63
2019-01-31T15:34:26.530Z,311.73
2019-01-31T15:36:58.746Z,344.97
2019-01-31T15:39:32.131Z,381.47
2019-01-31T15:42:04.466Z,378.47
2019-01-31T15:44:43.407Z,330.13
2019-01-31T15:47:11.233Z,473.47
2019-01-31T15:49:43.763Z,389.53
2019-01-31T15:52:15.916Z,489.23
2019-01-31T15:54:48.725Z,628.50
2019-01-31T15:57:20.971Z,593.70
2019-01-31T15:59:53.691Z,606.07
2019-01-31T16:02:26.036Z,607.23
2019-01-31T16:04:58.540Z,524.93
2019-01-31T16:07:32.663Z,563.83
2019-01-31T16:10:04.870Z,600.07
2019-01-31T16:12:38.969Z,571.90
2019-01-31T16:15:22.925Z,599.27
2019-01-31T16:17:58.754Z,591.40
2019-01-31T16:24:40.424Z,687.53
2019-01-31T16:27:16.011Z,679.80
2019-01-31T16:30:31.909Z,752.17
2019-01-31T16:40:12.765Z,848.27
2019-01-31T16:42:53.220Z,969.97
2019-01-31T16:55:46.718Z,935.77
2019-01-31T16:58:19.658Z,919.07
2019-01-31T17:01:11.242Z,876.13
2019-01-31T17:07:08.703Z,964.67
2019-01-31T17:09:55.480Z,1008.70
2019-01-31T17:12:31.096Z,1014.83
2019-01-31T17:15:17.582Z,1043.23
2019-01-31T17:17:45.732Z,1024.07
2019-01-31T17:21:11.201Z,1060.73
2019-01-31T17:28:04.172Z,1249.83
2019-01-31T17:31:11.723Z,1276.60
2019-01-31T17:34:42.443Z,1076.80
2019-01-31T17:37:49.897Z,1022.97
2019-01-31T17:41:11.086Z,892.43
2019-01-31T17:44:01.528Z,783.87
2019-01-31T17:47:03.901Z,769.10
2019-01-31T17:49:48.594Z,897.60
2019-01-31T17:59:59.631Z,964.40
2019-01-31T18:03:01.612Z,1035.93
2019-01-31T18:05:35.387Z,988.40
2019-01-31T18:08:12.149Z,986.33
2019-01-31T18:10:58.413Z,877.07
2019-01-31T18:18:25.209Z,1042.40
2019-01-31T18:21:19.596Z,898.93
2019-01-31T18:24:10.453Z,810.37
2019-01-31T18:26:50.842Z,759.03
2019-01-31T18:29:25.141Z,776.23
2019-01-31T18:32:05.907Z,662.23
2019-01-31T18:34:43.857Z,633.10
2019-01-31T18:41:48.306Z,536.50
2019-01-31T18:44:53.231Z,513.50
2019-01-31T19:00:58.562Z,507.83
2019-01-31T19:04:24.283Z,524.10
2019-01-31T19:10:04.389Z,504.70
2019-01-31T19:12:39.565Z,528.77
2019-01-31T19:15:12.444Z,512.03
2019-01-31T19:17:47.037Z,485.57
2019-01-31T19:20:25.916Z,504.30
2019-01-31T19:23:04.354Z,395.30
2019-01-31T19:25:39.590Z,386.50
2019-01-31T19:28:14.660Z,388.50
2019-01-31T19:30:48.022Z,453.17
2019-01-31T19:33:23.381Z,402.37
2019-01-31T19:35:55.947Z,479.33
2019-01-31T19:38:28.296Z,432.37
2019-01-31T19:41:00.841Z,396.60
2019-01-31T19:43:33.302Z,368.50
2019-01-31T19:46:15.857Z,332.47
2019-01-31T19:48:39.599Z,295.23
2019-01-31T19:51:12.111Z,348.40
2019-01-31T19:53:44.518Z,314.90
2019-01-31T19:56:18.229Z,346.93
2019-01-31T19:58:50.367Z,386.70
2019-01-31T20:01:22.590Z,376.27
2019-01-31T20:03:54.785Z,471.13
2019-01-31T20:06:26.946Z,483.10
2019-01-31T20:09:01.776Z,466.97
2019-01-31T20:11:44.629Z,492.17
2019-01-31T20:14:16.813Z,523.20
2019-01-31T20:16:48.979Z,549.63
2019-01-31T20:19:21.706Z,543.70
2019-01-31T20:21:53.868Z,533.53
2019-01-31T20:24:26.026Z,518.70
2019-01-31T20:26:58.142Z,523.77
2019-01-31T20:29:30.172Z,464.93
2019-01-31T20:32:02.291Z,452.47
2019-01-31T20:34:34.616Z,451.67
2019-01-31T20:37:06.788Z,468.37
2019-01-31T20:39:38.915Z,387.43
2019-01-31T20:42:11.100Z,390.73
2019-01-31T20:44:43.300Z,395.13
2019-01-31T20:47:16.001Z,377.40
2019-01-31T20:49:48.257Z,364.77
2019-01-31T20:52:20.320Z,413.77
2019-01-31T20:54:52.522Z,388.17
2019-01-31T20:57:24.632Z,409.87
2019-01-31T20:59:56.796Z,411.70
2019-01-31T21:02:28.855Z,384.80
2019-01-31T21:05:01.022Z,398.90
2019-01-31T21:07:33.521Z,417.40
2019-01-31T21:10:06.260Z,393.37
2019-01-31T21:12:38.384Z,363.47
2019-01-31T21:15:13.147Z,312.83
2019-01-31T21:17:45.315Z,291.23
2019-01-31T21:20:18.356Z,300.97
2019-01-31T21:22:50.526Z,346.93
2019-01-31T21:25:22.603Z,315.17
2019-01-31T21:27:54.656Z,351.57
2019-01-31T21:30:31.985Z,330.67
2019-01-31T21:33:04.050Z,310.83
2019-01-31T21:35:36.062Z,349.00
2019-01-31T21:38:08.175Z,350.53
2019-01-31T21:40:40.730Z,374.40
2019-01-31T21:43:12.795Z,404.73
2019-01-31T21:45:44.910Z,453.57
2019-01-31T21:48:17.007Z,418.50
2019-01-31T21:50:49.093Z,437.47
2019-01-31T21:53:21.262Z,436.83
2019-01-31T21:55:53.454Z,416.40
2019-01-31T21:58:25.572Z,399.67
2019-01-31T22:00:58.670Z,366.00
2019-01-31T22:03:30.728Z,371.20
2019-01-31T22:06:02.750Z,357.27
2019-01-31T22:08:34.810Z,368.00
2019-01-31T22:11:06.919Z,395.70
2019-01-31T22:13:38.960Z,377.20
2019-01-31T22:16:11.116Z,359.53
2019-01-31T22:18:43.168Z,323.93
2019-01-31T22:21:16.185Z,330.17
2019-01-31T22:23:48.383Z,302.50
2019-01-31T22:26:20.496Z,337.60
2019-01-31T22:28:52.562Z,403.50
2019-01-31T22:31:24.636Z,369.13
2019-01-31T22:33:56.848Z,324.80
2019-01-31T22:36:28.991Z,315.47
2019-01-31T22:39:01.001Z,300.00
2019-01-31T22:41:34.673Z,283.70
2019-01-31T22:44:06.778Z,347.17
2019-01-31T22:46:38.792Z,326.90
2019-01-31T22:49:10.798Z,310.70
2019-01-31T22:51:42.832Z,293.03
2019-01-31T22:54:15.910Z,338.10
2019-01-31T22:56:47.911Z,335.57
2019-01-31T22:59:19.960Z,312.20
2019-01-31T23:01:58.879Z,288.87
2019-01-31T23:04:31.018Z,266.87
2019-01-31T23:07:03.025Z,284.77
2019-01-31T23:09:35.165Z,279.80
2019-01-31T23:12:07.229Z,290.60
2019-01-31T23:14:39.267Z,268.50
2019-01-31T23:17:11.332Z,263.03
2019-01-31T23:19:43.330Z,257.83
2019-01-31T23:22:15.413Z,268.93
2019-01-31T23:24:47.449Z,271.93
2019-01-31T23:27:19.516Z,258.07
2019-01-31T23:29:51.754Z,270.27
2019-01-31T23:32:23.886Z,276.80
2019-01-31T23:34:56.027Z,278.83
2019-01-31T23:37:28.076Z,253.03
2019-01-31T23:40:00.308Z,234.53
2019-01-31T23:42:32.395Z,239.10
2019-01-31T23:45:05.792Z,244.00
2019-01-31T23:47:47.622Z,239.23
2019-01-31T23:50:11.647Z,221.77
2019-01-31T23:52:43.714Z,208.93
2019-01-31T23:55:15.752Z,228.73
2019-01-31T23:57:48.881Z,224.03
